createdAt,value
2019-03-28T00:05:55.102Z,9.20
2019-03-28T00:08:23.823Z,9.20
2019-03-28T00:10:52.541Z,9.20
2019-03-28T00:13:21.285Z,9.20
2019-03-28T00:15:50.005Z,9.30
2019-03-28T00:18:18.861Z,9.20
2019-03-28T00:20:47.605Z,9.20
2019-03-28T00:23:29.645Z,9.10
2019-03-28T00:25:58.472Z,9.10
2019-03-28T00:28:27.190Z,9.10
2019-03-28T00:30:55.977Z,9.00
2019-03-28T00:33:24.722Z,9.00
2019-03-28T00:35:53.511Z,9.00
2019-03-28T00:38:22.222Z,9.00
2019-03-28T00:40:51.017Z,8.90
2019-03-28T00:43:19.737Z,8.90
2019-03-28T00:45:48.450Z,8.90
2019-03-28T00:48:17.272Z,8.90
2019-03-28T00:50:45.989Z,8.80
2019-03-28T00:53:15.333Z,8.80
2019-03-28T00:55:44.081Z,8.80
2019-03-28T00:58:12.807Z,8.80
2019-03-28T01:00:42.329Z,8.80
2019-03-28T01:03:11.229Z,8.70
2019-03-28T01:05:40.049Z,8.60
2019-03-28T01:08:08.772Z,8.60
2019-03-28T01:10:37.613Z,8.50
2019-03-28T01:13:06.324Z,8.40
2019-03-28T01:15:35.048Z,8.40
2019-03-28T01:18:03.860Z,8.40
2019-03-28T01:20:32.581Z,8.30
2019-03-28T01:23:01.376Z,8.40
2019-03-28T01:25:30.229Z,8.40
2019-03-28T01:27:58.959Z,8.40
2019-03-28T01:30:46.206Z,8.40
2019-03-28T01:33:15.070Z,8.40
2019-03-28T01:35:43.860Z,8.30
2019-03-28T01:38:12.606Z,8.20
2019-03-28T01:40:41.350Z,8.20
2019-03-28T01:43:10.073Z,8.20
2019-03-28T01:45:38.963Z,8.10
2019-03-28T01:48:08.279Z,8.00
2019-03-28T01:50:37.110Z,8.10
2019-03-28T01:53:05.937Z,8.10
2019-03-28T01:55:34.681Z,8.10
2019-03-28T01:58:03.448Z,8.00
2019-03-28T02:00:32.301Z,7.90
2019-03-28T02:03:01.016Z,7.90
2019-03-28T02:05:29.817Z,7.90
2019-03-28T02:07:58.599Z,7.80
2019-03-28T02:10:27.316Z,7.80
2019-03-28T02:12:56.272Z,7.70
2019-03-28T02:15:25.333Z,7.60
2019-03-28T02:18:12.184Z,7.70
2019-03-28T02:20:58.577Z,7.70
2019-03-28T02:23:27.421Z,7.70
2019-03-28T02:25:56.185Z,7.70
2019-03-28T02:28:24.934Z,7.60
2019-03-28T02:30:53.666Z,7.40
2019-03-28T02:33:22.390Z,7.50
2019-03-28T02:35:51.132Z,7.50
2019-03-28T02:38:19.948Z,7.50
2019-03-28T02:40:48.646Z,7.40
2019-03-28T02:43:17.394Z,7.40
2019-03-28T02:45:46.114Z,7.40
2019-03-28T02:48:14.834Z,7.40
2019-03-28T02:50:43.579Z,7.40
2019-03-28T02:53:12.297Z,7.40
2019-03-28T02:55:41.027Z,7.30
2019-03-28T02:58:10.793Z,7.40
2019-03-28T03:00:39.877Z,7.40
2019-03-28T03:03:08.597Z,7.40
2019-03-28T03:05:37.404Z,7.50
2019-03-28T03:08:06.196Z,7.40
2019-03-28T03:10:34.984Z,7.40
2019-03-28T03:13:03.732Z,7.40
2019-03-28T03:15:32.458Z,7.30
2019-03-28T03:18:01.254Z,7.20
2019-03-28T03:20:48.351Z,7.30
2019-03-28T03:23:17.069Z,7.20
2019-03-28T03:25:45.787Z,7.20
2019-03-28T03:28:14.533Z,7.30
2019-03-28T03:30:43.279Z,7.30
2019-03-28T03:33:11.997Z,7.40
2019-03-28T03:35:40.778Z,7.40
2019-03-28T03:38:09.493Z,7.40
2019-03-28T03:40:38.314Z,7.50
2019-03-28T03:43:07.058Z,7.50
2019-03-28T03:45:36.003Z,7.50
2019-03-28T03:48:04.768Z,7.60
2019-03-28T03:50:33.612Z,7.50
2019-03-28T03:53:02.338Z,7.40
2019-03-28T03:55:31.054Z,7.40
2019-03-28T03:58:14.321Z,7.40
2019-03-28T04:00:32.184Z,7.40
2019-03-28T04:03:02.994Z,7.30
2019-03-28T04:05:32.357Z,7.40
2019-03-28T04:08:01.079Z,7.40
2019-03-28T04:10:29.899Z,7.40
2019-03-28T04:12:58.646Z,7.30
2019-03-28T04:15:27.437Z,7.10
2019-03-28T04:17:56.149Z,7.00
2019-03-28T04:20:26.268Z,7.00
2019-03-28T04:22:54.990Z,6.90
2019-03-28T04:25:23.719Z,6.90
2019-03-28T04:27:52.460Z,7.10
2019-03-28T04:30:21.189Z,7.20
2019-03-28T04:32:49.905Z,7.30
2019-03-28T04:35:18.653Z,7.30
2019-03-28T04:37:47.452Z,7.30
2019-03-28T04:40:16.163Z,7.40
2019-03-28T04:42:45.965Z,7.40
2019-03-28T04:45:15.249Z,7.40
2019-03-28T04:47:43.969Z,7.60
2019-03-28T04:50:13.719Z,7.80
2019-03-28T04:52:42.434Z,7.90
2019-03-28T04:55:28.997Z,8.00
2019-03-28T04:57:57.724Z,8.00
2019-03-28T05:00:26.447Z,8.00
2019-03-28T05:02:55.188Z,7.90
2019-03-28T05:05:23.905Z,7.70
2019-03-28T05:07:52.621Z,7.70
2019-03-28T05:10:21.371Z,7.60
2019-03-28T05:12:50.091Z,7.50
2019-03-28T05:15:20.352Z,7.50
2019-03-28T05:17:49.200Z,7.40
2019-03-28T05:20:17.923Z,7.40
2019-03-28T05:22:46.644Z,7.30
2019-03-28T05:25:15.389Z,7.30
2019-03-28T05:27:44.108Z,7.30
2019-03-28T05:30:13.126Z,7.30
2019-03-28T05:32:41.868Z,7.30
2019-03-28T05:35:10.587Z,7.30
2019-03-28T05:37:39.305Z,7.20
2019-03-28T05:40:08.450Z,7.20
2019-03-28T05:42:37.169Z,7.20
2019-03-28T05:45:07.090Z,7.30
2019-03-28T05:47:35.830Z,7.30
2019-03-28T05:50:06.346Z,7.30
2019-03-28T05:52:35.069Z,7.30
2019-03-28T05:55:05.433Z,7.40
2019-03-28T05:57:34.449Z,7.40
2019-03-28T06:00:03.245Z,7.30
2019-03-28T06:02:31.986Z,7.30
2019-03-28T06:05:00.957Z,7.30
2019-03-28T06:07:29.723Z,7.30
2019-03-28T06:09:58.460Z,7.30
2019-03-28T06:12:27.293Z,7.30
2019-03-28T06:14:56.079Z,7.40
2019-03-28T06:17:24.826Z,7.50
2019-03-28T06:19:53.546Z,7.50
2019-03-28T06:22:22.266Z,7.60
2019-03-28T06:24:51.007Z,7.60
2019-03-28T06:27:19.721Z,7.60
2019-03-28T06:29:48.453Z,7.60
2019-03-28T06:32:17.197Z,7.60
2019-03-28T06:34:45.916Z,7.70
2019-03-28T06:37:14.638Z,7.70
2019-03-28T06:39:43.384Z,7.80
2019-03-28T06:42:12.107Z,7.90
2019-03-28T06:44:40.830Z,7.90
2019-03-28T06:47:09.585Z,7.90
2019-03-28T06:49:38.301Z,8.00
2019-03-28T06:52:07.016Z,8.00
2019-03-28T06:54:35.772Z,8.10
2019-03-28T06:57:04.488Z,8.20
2019-03-28T06:59:37.675Z,8.20
2019-03-28T07:02:03.644Z,8.20
2019-03-28T07:04:32.370Z,8.30
2019-03-28T07:07:01.093Z,8.40
2019-03-28T07:09:29.837Z,8.40
2019-03-28T07:11:58.556Z,8.50
2019-03-28T07:14:28.233Z,8.50
2019-03-28T07:16:57.040Z,8.50
2019-03-28T07:19:25.740Z,8.60
2019-03-28T07:21:54.451Z,8.60
2019-03-28T07:24:23.268Z,8.70
2019-03-28T07:26:51.993Z,8.70
2019-03-28T07:29:20.708Z,8.80
2019-03-28T07:31:49.453Z,8.90
2019-03-28T07:34:18.178Z,9.00
2019-03-28T07:36:46.893Z,9.10
2019-03-28T07:39:18.740Z,9.10
2019-03-28T07:41:46.014Z,9.20
2019-03-28T07:44:14.737Z,9.30
2019-03-28T07:46:43.483Z,9.40
2019-03-28T07:49:12.201Z,9.50
2019-03-28T07:51:40.913Z,9.50
2019-03-28T07:54:09.687Z,9.60
2019-03-28T07:56:38.409Z,9.70
2019-03-28T07:59:07.153Z,9.70
2019-03-28T08:01:35.930Z,9.80
2019-03-28T08:04:04.645Z,9.80
2019-03-28T08:06:33.373Z,9.80
2019-03-28T08:09:02.125Z,9.90
2019-03-28T08:11:30.970Z,9.90
2019-03-28T08:13:59.942Z,10.00
2019-03-28T08:16:29.108Z,10.00
2019-03-28T08:18:59.559Z,10.10
2019-03-28T08:21:28.245Z,10.10
2019-03-28T08:23:57.002Z,10.20
2019-03-28T08:26:25.736Z,10.30
2019-03-28T08:28:54.515Z,10.40
2019-03-28T08:31:41.852Z,10.40
2019-03-28T08:34:11.335Z,10.40
2019-03-28T08:36:40.065Z,10.50
2019-03-28T08:39:08.881Z,10.60
2019-03-28T08:41:37.618Z,10.60
2019-03-28T08:44:07.394Z,10.60
2019-03-28T08:46:36.202Z,10.60
2019-03-28T08:49:04.936Z,10.60
2019-03-28T08:51:33.646Z,10.70
2019-03-28T08:54:02.398Z,10.70
2019-03-28T08:56:31.117Z,10.80
2019-03-28T08:58:59.851Z,10.80
2019-03-28T09:01:28.592Z,10.90
2019-03-28T09:03:57.321Z,10.90
2019-03-28T09:06:26.037Z,11.00
2019-03-28T09:08:54.807Z,11.00
2019-03-28T09:11:23.533Z,11.10
2019-03-28T09:13:52.253Z,11.10
2019-03-28T09:16:21.001Z,11.20
2019-03-28T09:18:49.725Z,11.20
2019-03-28T09:21:18.459Z,11.20
2019-03-28T09:23:47.204Z,11.30
2019-03-28T09:26:15.918Z,11.30
2019-03-28T09:28:44.648Z,11.30
2019-03-28T09:31:19.761Z,11.40
2019-03-28T09:33:43.869Z,11.40
2019-03-28T09:36:12.593Z,11.50
2019-03-28T09:38:41.370Z,11.50
2019-03-28T09:41:27.713Z,11.50
2019-03-28T09:43:56.471Z,11.50
2019-03-28T09:46:25.288Z,11.50
2019-03-28T09:48:54.016Z,11.60
2019-03-28T09:51:23.810Z,11.60
2019-03-28T09:53:52.533Z,11.60
2019-03-28T09:56:21.257Z,11.60
2019-03-28T09:58:50.005Z,11.60
2019-03-28T10:01:18.725Z,11.70
2019-03-28T10:04:06.601Z,11.70
2019-03-28T10:06:35.469Z,11.80
2019-03-28T10:09:05.560Z,11.90
2019-03-28T10:11:34.305Z,11.90
2019-03-28T10:14:03.066Z,12.00
2019-03-28T10:16:31.787Z,12.10
2019-03-28T10:19:00.541Z,12.30
2019-03-28T10:21:29.362Z,12.30
2019-03-28T10:23:58.086Z,12.40
2019-03-28T10:26:26.832Z,12.50
2019-03-28T10:28:55.558Z,12.60
2019-03-28T10:31:24.278Z,12.70
2019-03-28T10:33:53.133Z,12.80
2019-03-28T10:36:21.857Z,12.90
2019-03-28T10:38:50.583Z,13.00
2019-03-28T10:41:19.337Z,13.10
2019-03-28T10:43:48.057Z,13.20
2019-03-28T10:46:16.772Z,13.30
2019-03-28T10:48:45.526Z,13.30
2019-03-28T10:51:14.309Z,13.30
2019-03-28T10:53:43.029Z,13.40
2019-03-28T10:56:21.609Z,13.40
2019-03-28T10:58:42.163Z,13.50
2019-03-28T11:01:10.881Z,13.50
2019-03-28T11:03:39.638Z,13.60
2019-03-28T11:06:08.355Z,13.50
2019-03-28T11:08:37.081Z,13.60
2019-03-28T11:11:05.831Z,13.60
2019-03-28T11:13:34.554Z,13.60
2019-03-28T11:16:03.281Z,13.60
2019-03-28T11:18:32.097Z,13.60
2019-03-28T11:21:00.824Z,13.60
2019-03-28T11:23:29.544Z,13.60
2019-03-28T11:25:58.313Z,13.60
2019-03-28T11:28:27.053Z,13.50
2019-03-28T11:30:55.769Z,13.50
2019-03-28T11:33:24.518Z,13.60
2019-03-28T11:35:53.246Z,13.60
2019-03-28T11:38:21.961Z,13.70
2019-03-28T11:40:50.812Z,13.70
2019-03-28T11:43:19.721Z,13.70
2019-03-28T11:45:48.661Z,13.70
2019-03-28T11:48:17.483Z,13.70
2019-03-28T11:50:46.208Z,13.80
2019-03-28T11:53:15.021Z,13.90
2019-03-28T11:55:43.777Z,14.00
2019-03-28T11:58:12.497Z,14.00
2019-03-28T12:00:41.214Z,13.90
2019-03-28T12:03:09.984Z,13.80
2019-03-28T12:05:38.710Z,13.90
2019-03-28T12:08:07.425Z,13.90
2019-03-28T12:10:36.225Z,13.90
2019-03-28T12:13:04.964Z,13.80
2019-03-28T12:15:33.665Z,13.90
2019-03-28T12:18:02.525Z,14.00
2019-03-28T12:20:31.261Z,14.10
2019-03-28T12:23:18.101Z,14.20
2019-03-28T12:25:47.442Z,14.20
2019-03-28T12:28:16.245Z,14.30
2019-03-28T12:30:44.996Z,14.30
2019-03-28T12:33:13.721Z,14.30
2019-03-28T12:35:42.450Z,14.20
2019-03-28T12:38:11.202Z,14.20
2019-03-28T12:40:39.921Z,14.10
2019-03-28T12:43:08.743Z,14.20
2019-03-28T12:45:55.585Z,14.30
2019-03-28T12:48:24.312Z,14.30
2019-03-28T12:50:58.854Z,14.30
2019-03-28T12:53:23.437Z,14.20
2019-03-28T12:55:52.161Z,14.20
2019-03-28T12:58:20.898Z,14.30
2019-03-28T13:01:07.672Z,14.10
2019-03-28T13:03:45.298Z,14.00
2019-03-28T13:06:06.769Z,14.10
2019-03-28T13:08:35.526Z,14.10
2019-03-28T13:11:04.721Z,14.00
2019-03-28T13:13:33.447Z,13.90
2019-03-28T13:16:02.303Z,13.90
2019-03-28T13:18:31.025Z,13.90
2019-03-28T13:21:12.735Z,13.80
2019-03-28T13:23:30.165Z,13.90
2019-03-28T13:25:58.889Z,14.00
2019-03-28T13:28:28.559Z,14.00
2019-03-28T13:30:57.577Z,14.10
2019-03-28T13:33:26.306Z,14.20
2019-03-28T13:35:55.072Z,14.20
2019-03-28T13:38:23.822Z,14.20
2019-03-28T13:40:52.549Z,14.10
2019-03-28T13:43:21.273Z,14.00
2019-03-28T13:45:50.113Z,14.00
2019-03-28T13:48:18.839Z,14.10
2019-03-28T13:50:47.565Z,14.10
2019-03-28T13:53:16.320Z,14.10
2019-03-28T13:55:45.069Z,14.20
2019-03-28T13:58:14.057Z,14.30
2019-03-28T14:00:42.861Z,14.40
2019-03-28T14:03:11.589Z,14.40
2019-03-28T14:05:40.462Z,14.30
2019-03-28T14:08:09.161Z,14.30
2019-03-28T14:10:37.890Z,14.30
2019-03-28T14:13:06.620Z,14.30
2019-03-28T14:15:35.368Z,14.20
2019-03-28T14:18:04.117Z,14.20
2019-03-28T14:23:19.555Z,14.20
2019-03-28T14:25:48.297Z,14.10
2019-03-28T14:28:17.076Z,14.00
2019-03-28T14:30:45.825Z,14.10
2019-03-28T14:33:15.966Z,14.20
2019-03-28T14:35:44.922Z,14.10
2019-03-28T14:38:13.673Z,14.20
2019-03-28T14:41:00.382Z,14.30
2019-03-28T14:43:29.133Z,14.30
2019-03-28T14:45:57.855Z,14.20
2019-03-28T14:48:26.574Z,14.20
2019-03-28T14:50:55.448Z,14.30
2019-03-28T14:53:24.147Z,14.50
2019-03-28T14:55:54.361Z,14.40
2019-03-28T14:58:24.515Z,14.40
2019-03-28T15:00:54.038Z,14.50
2019-03-28T15:03:27.232Z,14.50
2019-03-28T15:05:53.322Z,14.50
2019-03-28T15:08:22.129Z,14.50
2019-03-28T15:10:50.849Z,14.50
2019-03-28T15:13:19.597Z,14.50
2019-03-28T15:15:48.320Z,14.30
2019-03-28T15:18:17.105Z,14.30
2019-03-28T15:20:45.853Z,14.30
2019-03-28T15:23:14.576Z,14.40
2019-03-28T15:25:43.297Z,14.40
2019-03-28T15:28:12.114Z,14.30
2019-03-28T15:30:40.842Z,14.40
2019-03-28T15:33:09.573Z,14.40
2019-03-28T15:35:56.474Z,14.40
2019-03-28T15:38:25.200Z,14.40
2019-03-28T15:40:53.921Z,14.30
2019-03-28T15:43:22.673Z,14.30
2019-03-28T15:45:51.490Z,14.30
2019-03-28T15:48:20.217Z,14.20
2019-03-28T15:50:48.961Z,14.20
2019-03-28T15:53:17.689Z,14.20
2019-03-28T15:55:46.417Z,14.40
2019-03-28T15:58:23.119Z,14.50
2019-03-28T16:00:45.640Z,14.50
2019-03-28T16:03:14.361Z,14.50
2019-03-28T16:05:43.109Z,14.60
2019-03-28T16:08:11.836Z,14.70
2019-03-28T16:10:40.557Z,14.80
2019-03-28T16:13:09.918Z,14.80
2019-03-28T16:15:38.685Z,14.80
2019-03-28T16:18:25.609Z,14.80
2019-03-28T16:20:54.333Z,14.60
2019-03-28T16:23:23.063Z,14.50
2019-03-28T16:25:51.797Z,14.50
2019-03-28T16:28:38.213Z,14.50
2019-03-28T16:31:07.083Z,14.40
2019-03-28T16:33:35.801Z,14.30
2019-03-28T16:36:04.626Z,14.20
2019-03-28T16:38:33.392Z,14.10
2019-03-28T16:41:02.122Z,14.10
2019-03-28T16:43:30.856Z,14.10
2019-03-28T16:45:59.600Z,14.00
2019-03-28T16:48:28.399Z,14.00
2019-03-28T16:50:57.213Z,14.00
2019-03-28T16:53:26.988Z,13.90
2019-03-28T16:55:55.709Z,13.90
2019-03-28T16:58:24.438Z,13.90
2019-03-28T17:00:53.275Z,13.90
2019-03-28T17:03:40.321Z,13.90
2019-03-28T17:06:09.078Z,13.90
2019-03-28T17:08:38.092Z,13.90
2019-03-28T17:11:07.718Z,13.90
2019-03-28T17:13:36.543Z,13.80
2019-03-28T17:16:07.578Z,13.70
2019-03-28T17:18:36.306Z,13.70
2019-03-28T17:21:23.498Z,13.60
2019-03-28T17:23:52.283Z,13.60
2019-03-28T17:26:21.038Z,13.60
2019-03-28T17:28:49.798Z,13.50
2019-03-28T17:31:19.019Z,13.50
2019-03-28T17:33:47.957Z,13.40
2019-03-28T17:36:16.714Z,13.40
2019-03-28T17:38:45.438Z,13.30
2019-03-28T17:41:14.162Z,13.30
2019-03-28T17:43:42.941Z,13.20
2019-03-28T17:46:12.422Z,13.20
2019-03-28T17:48:41.373Z,13.20
2019-03-28T17:51:10.177Z,13.10
2019-03-28T17:53:38.897Z,13.10
2019-03-28T17:56:07.629Z,13.00
2019-03-28T17:58:36.377Z,12.90
2019-03-28T18:01:05.881Z,12.90
2019-03-28T18:03:34.610Z,12.80
2019-03-28T18:06:03.405Z,12.80
2019-03-28T18:08:32.230Z,12.70
2019-03-28T18:11:00.937Z,12.70
2019-03-28T18:13:29.685Z,12.60
2019-03-28T18:15:58.411Z,12.60
2019-03-28T18:18:27.129Z,12.50
2019-03-28T18:20:55.943Z,12.40
2019-03-28T18:23:24.666Z,12.40
2019-03-28T18:25:53.390Z,12.40
2019-03-28T18:28:22.157Z,12.40
2019-03-28T18:30:50.880Z,12.30
2019-03-28T18:36:06.023Z,12.20
2019-03-28T18:38:34.742Z,12.20
2019-03-28T18:41:03.725Z,12.20
2019-03-28T18:43:32.477Z,12.20
2019-03-28T18:46:01.237Z,12.20
2019-03-28T18:48:36.039Z,12.00
2019-03-28T18:51:00.368Z,12.00
2019-03-28T18:53:29.093Z,11.90
2019-03-28T18:55:57.816Z,11.90
2019-03-28T18:58:26.582Z,11.90
2019-03-28T19:00:55.302Z,11.80
2019-03-28T19:03:24.142Z,11.80
2019-03-28T19:05:52.898Z,11.70
2019-03-28T19:08:21.713Z,11.70
2019-03-28T19:10:51.062Z,11.70
2019-03-28T19:13:19.892Z,11.70
2019-03-28T19:15:49.774Z,11.70
2019-03-28T19:18:18.855Z,11.60
2019-03-28T19:20:47.610Z,11.60
2019-03-28T19:23:16.397Z,11.50
2019-03-28T19:25:46.845Z,11.50
2019-03-28T19:28:28.083Z,11.50
2019-03-28T19:30:45.968Z,11.40
2019-03-28T19:33:14.887Z,11.30
2019-03-28T19:35:45.445Z,11.30
2019-03-28T19:38:14.475Z,11.20
2019-03-28T19:40:43.274Z,11.20
2019-03-28T19:43:20.339Z,11.20
2019-03-28T19:45:42.554Z,11.20
2019-03-28T19:48:11.269Z,11.10
2019-03-28T19:50:40.014Z,11.10
2019-03-28T19:53:11.595Z,11.10
2019-03-28T19:55:40.038Z,11.00
2019-03-28T19:58:09.165Z,11.00
2019-03-28T20:00:37.884Z,10.90
2019-03-28T20:03:06.709Z,10.80
2019-03-28T20:05:46.935Z,10.80
2019-03-28T20:08:26.111Z,10.80
2019-03-28T20:10:54.269Z,10.80
2019-03-28T20:13:23.875Z,10.80
2019-03-28T20:15:52.988Z,10.70
2019-03-28T20:18:21.750Z,10.60
2019-03-28T20:20:50.470Z,10.60
2019-03-28T20:23:19.194Z,10.60
2019-03-28T20:25:47.946Z,10.50
2019-03-28T20:28:16.730Z,10.50
2019-03-28T20:30:45.446Z,10.40
2019-03-28T20:33:14.246Z,10.40
2019-03-28T20:35:42.968Z,10.50
2019-03-28T20:38:11.689Z,10.50
2019-03-28T20:40:43.228Z,10.40
2019-03-28T20:43:10.810Z,10.50
2019-03-28T20:45:39.533Z,10.40
2019-03-28T20:48:08.414Z,10.40
2019-03-28T20:50:37.132Z,10.40
2019-03-28T20:53:05.857Z,10.30
2019-03-28T20:55:34.631Z,10.30
2019-03-28T20:58:03.358Z,10.30
2019-03-28T21:00:39.036Z,10.30
2019-03-28T21:03:08.381Z,10.30
2019-03-28T21:05:37.216Z,10.20
2019-03-28T21:08:05.957Z,10.20
2019-03-28T21:10:34.724Z,10.10
2019-03-28T21:13:39.953Z,10.10
2019-03-28T21:16:08.677Z,10.10
2019-03-28T21:18:37.401Z,10.00
2019-03-28T21:21:06.242Z,10.00
2019-03-28T21:23:35.042Z,10.00
2019-03-28T21:26:03.912Z,10.00
2019-03-28T21:28:46.144Z,9.90
2019-03-28T21:31:02.994Z,9.90
2019-03-28T21:33:31.712Z,9.90
2019-03-28T21:36:00.457Z,9.90
2019-03-28T21:38:29.246Z,9.90
2019-03-28T21:40:59.549Z,9.80
2019-03-28T21:43:28.523Z,9.80
2019-03-28T21:45:57.240Z,9.80
2019-03-28T21:48:25.956Z,9.80
2019-03-28T21:50:54.711Z,9.70
2019-03-28T21:53:23.440Z,9.70
2019-03-28T21:55:55.509Z,9.70
2019-03-28T21:58:22.557Z,9.70
2019-03-28T22:00:51.277Z,9.70
2019-03-28T22:06:06.464Z,9.50
2019-03-28T22:08:35.178Z,9.40
2019-03-28T22:11:03.894Z,9.40
2019-03-28T22:13:32.639Z,9.50
2019-03-28T22:16:01.359Z,9.40
2019-03-28T22:18:30.073Z,9.40
2019-03-28T22:20:58.831Z,9.40
2019-03-28T22:23:27.547Z,9.30
2019-03-28T22:25:56.265Z,9.30
2019-03-28T22:28:25.009Z,9.30
2019-03-28T22:30:53.725Z,9.30
2019-03-28T22:33:22.449Z,9.30
2019-03-28T22:35:51.830Z,9.30
2019-03-28T22:38:20.999Z,9.40
2019-03-28T22:40:49.935Z,9.40
2019-03-28T22:43:18.678Z,9.40
2019-03-28T22:45:47.413Z,9.40
2019-03-28T22:48:16.123Z,9.40
2019-03-28T22:50:44.871Z,9.40
2019-03-28T22:53:13.577Z,9.40
2019-03-28T22:55:42.293Z,9.30
2019-03-28T22:58:11.042Z,9.40
2019-03-28T23:00:47.296Z,9.40
2019-03-28T23:03:17.308Z,9.40
2019-03-28T23:05:46.034Z,9.40
2019-03-28T23:08:14.835Z,9.40
2019-03-28T23:10:43.641Z,9.40
2019-03-28T23:13:12.366Z,9.40
2019-03-28T23:15:41.098Z,9.40
2019-03-28T23:18:09.839Z,9.40
2019-03-28T23:20:38.656Z,9.30
2019-03-28T23:23:07.377Z,9.30
2019-03-28T23:25:36.948Z,9.30
2019-03-28T23:28:06.149Z,9.40
2019-03-28T23:30:34.870Z,9.40
2019-03-28T23:33:04.891Z,9.40
2019-03-28T23:35:33.751Z,9.40
2019-03-28T23:38:02.470Z,9.30
2019-03-28T23:40:31.285Z,9.40
2019-03-28T23:43:00.006Z,9.40
2019-03-28T23:45:28.716Z,9.30
2019-03-28T23:47:57.512Z,9.20
2019-03-28T23:50:26.233Z,9.20
2019-03-28T23:52:54.963Z,9.20
2019-03-28T23:55:23.709Z,9.20
2019-03-28T23:57:52.441Z,9.20
